Time;durP1;ratioP1;P1;durP2;ratioP2;P2;SDS_P1;SDS_P2;PMS_P1;PMS_P2;Temp;Humidity;BMP_temperature;BMP_pressure;BME280_temperature;BME280_humidity;BME280_pressure;Samples;Min_cycle;Max_cycle;Signal;HPM_P1;HPM_P2
2023/03/31 00:01:13;;;;;;;31.88;4.65;;;10.10;99.90;;;;;;4236696;28;20071;-87
2023/03/31 00:03:20;;;;;;;23.92;3.65;;;10.10;99.90;;;;;;4218731;28;20508;-87
2023/03/31 00:05:23;;;;;;;23.20;3.17;;;10.10;99.90;;;;;;4236157;28;20039;-87
2023/03/31 00:07:24;;;;;;;29.90;3.78;;;10.20;99.90;;;;;;4233906;28;20050;-87
2023/03/31 00:09:28;;;;;;;21.38;3.70;;;10.20;99.90;;;;;;4233351;28;20096;-88
2023/03/31 00:11:29;;;;;;;23.65;4.95;;;10.10;99.90;;;;;;4215407;28;20044;-88
2023/03/31 00:13:30;;;;;;;24.58;3.35;;;10.20;99.90;;;;;;4233329;28;20053;-88
2023/03/31 00:15:31;;;;;;;19.58;4.07;;;10.20;99.90;;;;;;4233055;28;20051;-88
2023/03/31 00:17:34;;;;;;;20.63;3.22;;;10.20;99.90;;;;;;4233334;28;20111;-88
2023/03/31 00:19:36;;;;;;;27.10;4.30;;;10.20;99.90;;;;;;4232760;28;20530;-88
2023/03/31 00:21:36;;;;;;;21.33;2.88;;;10.20;99.90;;;;;;4198426;28;20056;-88
2023/03/31 00:23:38;;;;;;;26.50;3.55;;;10.20;99.90;;;;;;4233060;28;20404;-88
2023/03/31 00:25:42;;;;;;;30.20;4.13;;;10.20;99.90;;;;;;4215034;28;20044;-87
2023/03/31 00:27:43;;;;;;;22.15;3.33;;;10.20;99.90;;;;;;4232971;28;20039;-88
2023/03/31 00:29:44;;;;;;;32.47;5.07;;;10.20;99.90;;;;;;4214696;28;20040;-88
2023/03/31 00:31:46;;;;;;;22.83;3.47;;;10.20;99.90;;;;;;4232662;28;20044;-88
2023/03/31 00:33:47;;;;;;;34.00;4.82;;;10.20;99.90;;;;;;4232768;28;20049;-88
2023/03/31 00:35:51;;;;;;;21.73;3.30;;;10.20;99.90;;;;;;4232861;28;20126;-88
2023/03/31 00:37:52;;;;;;;25.58;3.60;;;9.40;99.90;;;;;;4232886;28;20044;-88
2023/03/31 00:39:55;;;;;;;24.45;3.35;;;10.20;99.90;;;;;;4233369;28;20484;-88
2023/03/31 00:41:56;;;;;;;26.77;4.80;;;10.20;99.90;;;;;;4215270;28;20090;-88
2023/03/31 00:44:12;;;;;;;26.20;4.65;;;10.10;99.90;;;;;;4233744;28;20047;-88
2023/03/31 00:46:26;;;;;;;20.02;3.15;;;10.10;99.90;;;;;;4232462;28;20055;-88
2023/03/31 00:48:27;;;;;;;21.05;3.33;;;10.10;99.90;;;;;;4214936;28;20500;-88
2023/03/31 00:50:33;;;;;;;26.80;4.40;;;10.10;99.90;;;;;;4232656;28;20044;-88
2023/03/31 00:52:36;;;;;;;25.15;3.10;;;10.10;99.90;;;;;;4232436;28;20071;-88
2023/03/31 00:54:41;;;;;;;18.08;3.03;;;10.10;99.90;;;;;;4232990;28;20115;-88
2023/03/31 00:56:46;;;;;;;19.95;2.90;;;10.50;99.90;;;;;;4215445;28;20044;-88
2023/03/31 00:58:48;;;;;;;24.15;3.55;;;10.00;99.90;;;;;;4232504;28;20047;-88
2023/03/31 01:00:51;;;;;;;30.98;5.35;;;10.00;99.90;;;;;;4232764;28;20088;-88
2023/03/31 01:02:59;;;;;;;31.80;3.58;;;10.00;99.90;;;;;;4214143;28;20091;-88
2023/03/31 01:05:01;;;;;;;24.08;2.97;;;10.00;99.90;;;;;;4232985;28;20437;-88
2023/03/31 01:07:11;;;;;;;29.33;4.25;;;10.00;99.90;;;;;;4232555;28;20043;-88
2023/03/31 01:09:15;;;;;;;34.20;3.85;;;10.00;99.90;;;;;;4232411;28;20074;-88
2023/03/31 01:11:19;;;;;;;35.15;4.47;;;9.90;99.90;;;;;;4232345;28;20473;-88
2023/03/31 01:13:22;;;;;;;33.70;4.03;;;9.50;99.90;;;;;;4232078;28;20050;-88
2023/03/31 01:15:23;;;;;;;35.35;4.20;;;10.00;99.90;;;;;;4231723;28;20073;-88
2023/03/31 01:17:28;;;;;;;30.40;4.00;;;9.90;99.90;;;;;;4231605;28;20040;-88
2023/03/31 01:19:46;;;;;;;25.10;3.38;;;9.90;99.90;;;;;;4232111;28;20078;-88
2023/03/31 01:22:25;;;;;;;32.20;4.85;;;9.90;99.90;;;;;;4213747;28;20093;-88
2023/03/31 01:24:46;;;;;;;19.88;2.70;;;9.90;99.90;;;;;;4207524;28;20454;-88
2023/03/31 01:27:12;;;;;;;22.58;3.65;;;9.90;99.90;;;;;;4231847;28;20099;-88
2023/03/31 01:29:41;;;;;;;27.20;3.55;;;9.90;99.90;;;;;;4231714;28;20040;-88
2023/03/31 01:32:03;;;;;;;21.42;3.53;;;9.90;99.90;;;;;;4232152;28;20492;-88
2023/03/31 01:34:25;;;;;;;29.42;3.75;;;9.90;99.90;;;;;;4231927;28;20443;-88
2023/03/31 01:36:45;;;;;;;26.17;4.20;;;9.90;99.90;;;;;;4231571;28;20040;-88
2023/03/31 01:39:00;;;;;;;20.38;3.65;;;9.90;99.90;;;;;;4225109;28;20048;-88
2023/03/31 01:41:10;;;;;;;20.73;4.18;;;9.90;99.90;;;;;;4214899;28;20568;-88
2023/03/31 01:43:30;;;;;;;18.70;3.17;;;9.80;99.90;;;;;;4215189;28;20043;-88
2023/03/31 01:45:33;;;;;;;;;;;9.80;99.90;;;;;;4215288;28;20399;-87
2023/03/31 01:47:43;;;;;;;21.77;3.25;;;9.80;99.90;;;;;;4214560;28;19920;-88
2023/03/31 01:49:58;;;;;;;29.70;4.22;;;9.80;99.90;;;;;;4214999;28;20040;-88
2023/03/31 01:52:23;;;;;;;28.63;4.15;;;9.80;99.90;;;;;;4214674;28;20051;-88
2023/03/31 01:54:45;;;;;;;22.30;3.55;;;9.80;99.90;;;;;;4214807;28;20054;-88
2023/03/31 01:56:48;;;;;;;28.30;3.90;;;9.70;99.90;;;;;;4223627;28;20487;-88
2023/03/31 01:59:01;;;;;;;20.50;2.95;;;9.70;99.90;;;;;;4231290;28;20051;-88
2023/03/31 02:01:08;;;;;;;23.05;4.32;;;9.70;99.90;;;;;;4231686;28;20043;-88
2023/03/31 02:03:28;;;;;;;25.27;4.43;;;9.70;99.90;;;;;;4213690;28;20122;-88
2023/03/31 02:05:40;;;;;;;16.40;3.70;;;9.70;99.90;;;;;;4235140;28;20043;-88
2023/03/31 02:07:55;;;;;;;30.20;4.45;;;9.70;99.90;;;;;;4214455;28;20040;-88
2023/03/31 02:10:00;;;;;;;18.67;2.88;;;9.70;99.90;;;;;;4232611;28;20096;-88
2023/03/31 02:12:06;;;;;;;27.77;4.95;;;9.70;99.90;;;;;;4213505;28;20044;-88
2023/03/31 02:14:10;;;;;;;20.80;2.80;;;9.70;99.90;;;;;;4231654;28;20101;-88
2023/03/31 02:16:17;;;;;;;19.08;2.55;;;9.60;99.90;;;;;;4213053;28;20032;-88
2023/03/31 02:18:25;;;;;;;20.48;3.30;;;9.60;99.90;;;;;;4231084;28;20372;-88
2023/03/31 02:20:28;;;;;;;21.83;3.85;;;9.60;99.90;;;;;;4231176;28;20039;-88
2023/03/31 02:22:31;;;;;;;22.00;2.60;;;9.60;99.90;;;;;;4213087;28;20056;-88
2023/03/31 02:24:36;;;;;;;21.10;3.50;;;9.60;99.90;;;;;;4213630;28;20047;-88
2023/03/31 02:26:47;;;;;;;23.60;4.00;;;9.60;99.90;;;;;;4231458;28;20108;-88
2023/03/31 02:28:48;;;;;;;23.58;2.90;;;9.60;99.90;;;;;;4230681;28;20077;-88
2023/03/31 02:30:58;;;;;;;20.58;3.60;;;9.50;99.90;;;;;;4230808;28;20079;-88
2023/03/31 02:32:59;;;;;;;18.77;2.90;;;9.60;99.90;;;;;;4231784;28;20043;-89
2023/03/31 02:35:00;;;;;;;15.13;2.10;;;9.50;99.90;;;;;;4232156;28;20395;-88
2023/03/31 02:37:01;;;;;;;14.52;2.67;;;9.50;99.90;;;;;;4231832;28;20036;-88
2023/03/31 02:39:07;;;;;;;22.75;2.83;;;9.50;99.90;;;;;;4213197;28;20103;-88
2023/03/31 02:41:09;;;;;;;18.73;3.72;;;9.50;99.90;;;;;;4230779;28;20055;-88
2023/03/31 02:43:10;;;;;;;27.80;3.08;;;9.50;99.90;;;;;;4231373;28;20050;-88
2023/03/31 02:45:36;;;;;;;29.98;4.60;;;9.50;99.90;;;;;;4231455;28;20480;-88
2023/03/31 02:47:36;;;;;;;26.63;3.30;;;9.60;99.90;;;;;;4231256;28;20483;-88
2023/03/31 02:49:42;;;;;;;11.02;1.95;;;9.60;99.90;;;;;;4231149;28;20048;-88
2023/03/31 02:51:55;;;;;;;13.82;2.28;;;9.60;99.90;;;;;;4230661;28;20043;-88
2023/03/31 02:54:27;;;;;;;14.13;1.92;;;9.60;99.90;;;;;;4231183;28;20506;-88
2023/03/31 02:56:36;;;;;;;15.13;3.05;;;9.60;99.90;;;;;;4230955;28;20426;-88
2023/03/31 02:58:56;;;;;;;17.88;2.83;;;9.60;99.90;;;;;;4229226;28;20101;-88
2023/03/31 03:01:06;;;;;;;16.77;3.47;;;9.60;99.90;;;;;;4222234;28;20046;-88
2023/03/31 03:03:16;;;;;;;21.50;2.92;;;9.60;99.90;;;;;;4231474;28;20217;-88
2023/03/31 03:05:25;;;;;;;11.88;2.95;;;9.60;99.90;;;;;;4213137;28;20055;-88
2023/03/31 03:07:54;;;;;;;18.08;2.55;;;9.60;99.90;;;;;;4231416;28;20043;-88
2023/03/31 03:10:40;;;;;;;13.77;2.85;;;9.70;99.90;;;;;;4231767;28;20043;-88
2023/03/31 03:12:50;;;;;;;13.15;2.60;;;9.70;99.90;;;;;;4199034;28;20040;-88
2023/03/31 03:15:05;;;;;;;22.05;3.33;;;9.70;99.90;;;;;;4230829;28;20048;-88
2023/03/31 03:17:13;;;;;;;19.85;3.20;;;9.70;99.90;;;;;;4231086;28;20039;-88
2023/03/31 03:19:22;;;;;;;18.00;3.70;;;9.70;99.90;;;;;;4213349;28;20083;-88
2023/03/31 03:21:23;;;;;;;17.13;2.50;;;9.70;99.90;;;;;;4231184;28;20054;-87
2023/03/31 03:23:24;;;;;;;11.63;2.25;;;9.70;99.90;;;;;;4231110;28;20035;-88
2023/03/31 03:25:25;;;;;;;15.57;2.00;;;9.70;99.90;;;;;;4231093;28;20395;-88
2023/03/31 03:27:25;;;;;;;15.05;2.05;;;9.70;99.90;;;;;;4230932;28;20089;-88
2023/03/31 03:29:26;;;;;;;17.77;3.15;;;9.70;99.90;;;;;;4230471;28;20131;-88
2023/03/31 03:31:27;;;;;;;11.02;2.05;;;9.70;99.90;;;;;;4231079;28;20406;-88
2023/03/31 03:33:28;;;;;;;23.98;2.65;;;9.70;99.90;;;;;;4230972;28;20047;-88
2023/03/31 03:35:28;;;;;;;22.20;3.53;;;9.70;99.90;;;;;;4231171;28;20169;-88
2023/03/31 03:37:30;;;;;;;21.88;3.90;;;9.60;99.90;;;;;;4230831;28;20036;-88
2023/03/31 03:39:30;;;;;;;11.38;2.78;;;9.60;99.90;;;;;;4212365;28;20058;-88
2023/03/31 03:41:32;;;;;;;14.38;3.40;;;9.60;99.90;;;;;;4214719;28;20056;-88
2023/03/31 03:43:34;;;;;;;20.60;3.33;;;9.60;99.90;;;;;;4233692;28;20088;-88
2023/03/31 03:45:34;;;;;;;18.65;2.85;;;9.60;99.90;;;;;;4233583;28;20475;-88
2023/03/31 03:47:35;;;;;;;15.30;2.65;;;9.60;99.90;;;;;;4233303;28;20061;-87
2023/03/31 03:49:36;;;;;;;14.73;2.70;;;9.60;99.90;;;;;;4233576;28;20043;-88
2023/03/31 03:51:37;;;;;;;15.40;3.60;;;9.60;99.90;;;;;;4232983;28;20518;-88
2023/03/31 03:53:38;;;;;;;12.60;2.72;;;9.60;99.90;;;;;;4233666;28;20585;-88
2023/03/31 03:55:39;;;;;;;9.95;2.15;;;9.60;99.90;;;;;;4235488;28;20043;-87
2023/03/31 03:57:39;;;;;;;12.90;3.38;;;9.60;99.90;;;;;;4215148;28;20048;-88
2023/03/31 03:59:40;;;;;;;20.35;2.42;;;9.60;99.90;;;;;;4232882;28;20102;-87
2023/03/31 04:01:41;;;;;;;15.15;2.83;;;9.60;99.90;;;;;;4232741;28;20514;-87
2023/03/31 04:03:43;;;;;;;13.63;1.90;;;9.60;99.90;;;;;;4232927;28;20543;-87
2023/03/31 04:05:44;;;;;;;11.95;3.30;;;9.60;99.90;;;;;;4232794;28;20491;-87
2023/03/31 04:07:44;;;;;;;12.38;2.40;;;9.60;99.90;;;;;;4233053;28;20123;-88
2023/03/31 04:09:45;;;;;;;14.65;3.03;;;9.60;99.90;;;;;;4214965;28;20048;-88
2023/03/31 04:11:46;;;;;;;12.95;3.00;;;9.70;99.90;;;;;;4232752;28;20047;-88
2023/03/31 04:13:46;;;;;;;12.52;3.28;;;9.70;99.90;;;;;;4232349;28;20096;-87
2023/03/31 04:15:47;;;;;;;14.18;2.75;;;9.70;99.90;;;;;;4214426;28;20028;-87
2023/03/31 04:17:49;;;;;;;12.85;2.58;;;9.70;99.90;;;;;;4232921;28;20083;-88
2023/03/31 04:19:51;;;;;;;10.07;2.10;;;9.70;99.90;;;;;;4233348;28;20092;-87
2023/03/31 04:22:01;;;;;;;17.10;3.45;;;9.70;99.90;;;;;;4214841;28;20105;-87
2023/03/31 04:24:03;;;;;;;11.15;2.95;;;9.70;99.90;;;;;;4233330;28;20503;-88
2023/03/31 04:26:07;;;;;;;12.85;2.55;;;9.70;99.90;;;;;;4233046;28;20048;-87
2023/03/31 04:28:09;;;;;;;14.25;2.40;;;9.70;99.90;;;;;;4233135;28;20491;-88
2023/03/31 04:30:10;;;;;;;20.23;3.05;;;9.70;99.90;;;;;;4232528;28;20092;-87
2023/03/31 04:32:13;;;;;;;14.65;2.67;;;9.70;99.90;;;;;;4215175;28;20127;-88
2023/03/31 04:34:14;;;;;;;15.18;3.47;;;9.70;99.90;;;;;;4232873;28;20044;-87
2023/03/31 04:36:18;;;;;;;8.95;2.22;;;9.70;99.90;;;;;;4233061;28;20376;-88
2023/03/31 04:38:22;;;;;;;9.73;2.20;;;9.80;99.90;;;;;;4214784;28;20036;-87
2023/03/31 04:40:22;;;;;;;13.45;2.80;;;9.70;99.90;;;;;;4214731;28;20086;-88
2023/03/31 04:42:24;;;;;;;12.00;3.55;;;9.80;99.90;;;;;;4232907;28;20426;-88
2023/03/31 04:44:26;;;;;;;14.18;3.38;;;9.70;99.90;;;;;;4233067;28;20043;-87
2023/03/31 04:46:26;;;;;;;8.80;2.80;;;9.70;99.90;;;;;;4232705;28;20047;-87
2023/03/31 04:48:27;;;;;;;16.52;3.67;;;9.70;99.90;;;;;;4233091;28;20404;-88
2023/03/31 04:50:28;;;;;;;12.77;3.20;;;9.70;99.90;;;;;;4231920;28;20043;-88
2023/03/31 04:52:28;;;;;;;16.60;4.00;;;9.80;99.90;;;;;;4231172;28;20430;-88
2023/03/31 04:54:29;;;;;;;15.25;3.75;;;9.80;99.90;;;;;;4232283;28;20048;-88
2023/03/31 04:56:30;;;;;;;14.70;3.40;;;9.70;99.90;;;;;;4231731;28;20039;-88
2023/03/31 04:58:30;;;;;;;11.50;3.75;;;9.70;99.90;;;;;;4231916;28;20446;-87
2023/03/31 05:00:31;;;;;;;11.82;3.60;;;9.70;99.90;;;;;;4215414;28;20452;-87
2023/03/31 05:02:32;;;;;;;9.65;3.22;;;9.70;99.90;;;;;;4226165;28;20402;-88
2023/03/31 05:04:32;;;;;;;15.65;4.28;;;9.70;99.90;;;;;;4232024;28;20136;-87
2023/03/31 05:06:33;;;;;;;13.45;3.67;;;9.70;99.90;;;;;;4231884;28;20124;-87
2023/03/31 05:08:34;;;;;;;11.13;4.45;;;9.70;99.90;;;;;;4231619;28;20050;-87
2023/03/31 05:10:36;;;;;;;12.10;3.63;;;9.70;99.90;;;;;;4232215;28;20518;-87
2023/03/31 05:12:37;;;;;;;10.40;3.38;;;9.70;99.90;;;;;;4233128;28;20057;-87
2023/03/31 05:14:37;;;;;;;16.33;4.63;;;9.70;99.90;;;;;;4232792;28;20479;-87
2023/03/31 05:16:38;;;;;;;12.25;3.72;;;9.70;99.90;;;;;;4231965;28;20058;-88
2023/03/31 05:18:40;;;;;;;14.25;4.40;;;9.70;99.90;;;;;;4229482;28;20035;-87
2023/03/31 05:20:41;;;;;;;11.15;3.88;;;9.70;99.90;;;;;;4215121;28;20072;-87
2023/03/31 05:22:41;;;;;;;12.75;4.20;;;9.70;99.90;;;;;;4197047;28;20037;-88
2023/03/31 05:24:43;;;;;;;8.80;3.70;;;9.70;99.90;;;;;;4214333;28;20047;-87
2023/03/31 05:26:48;;;;;;;14.80;4.30;;;9.70;99.90;;;;;;4214619;28;20048;-87
2023/03/31 05:28:49;;;;;;;14.27;4.97;;;9.70;99.90;;;;;;4214875;28;20427;-87
2023/03/31 05:30:50;;;;;;;13.52;4.38;;;9.70;99.90;;;;;;4196576;28;20083;-88
2023/03/31 05:32:51;;;;;;;11.82;3.75;;;9.70;99.90;;;;;;4196414;28;20116;-87
2023/03/31 05:34:55;;;;;;;18.02;4.15;;;9.70;99.90;;;;;;4214497;28;20052;-87
2023/03/31 05:36:56;;;;;;;14.20;4.10;;;9.70;99.90;;;;;;4213696;28;20685;-87
2023/03/31 05:38:57;;;;;;;12.20;3.90;;;9.70;99.90;;;;;;4214351;28;20052;-87
2023/03/31 05:40:57;;;;;;;13.00;4.50;;;9.70;99.90;;;;;;4214163;28;20105;-87
2023/03/31 05:42:58;;;;;;;10.90;3.75;;;9.70;99.90;;;;;;4197292;28;20475;-87
2023/03/31 05:44:59;;;;;;;12.40;4.38;;;9.70;99.90;;;;;;4214554;28;20051;-88
2023/03/31 05:47:00;;;;;;;16.10;4.72;;;9.70;99.90;;;;;;4197639;28;20507;-87
2023/03/31 05:49:01;;;;;;;15.15;4.07;;;9.70;99.90;;;;;;4217024;28;20051;-88
2023/03/31 05:51:02;;;;;;;11.60;4.15;;;9.70;99.90;;;;;;4216963;28;20491;-87
2023/03/31 05:53:03;;;;;;;10.57;4.65;;;9.80;99.90;;;;;;4215681;28;20055;-87
2023/03/31 05:55:04;;;;;;;13.10;3.72;;;9.80;99.90;;;;;;4214929;28;20050;-88
2023/03/31 05:57:06;;;;;;;13.32;5.05;;;9.80;99.90;;;;;;4226161;28;20598;-88
2023/03/31 05:59:07;;;;;;;11.57;4.47;;;9.80;99.90;;;;;;4231492;28;20406;-87
2023/03/31 06:01:18;;;;;;;12.35;4.13;;;9.80;99.90;;;;;;4213439;28;20048;-87
2023/03/31 06:03:20;;;;;;;17.20;4.95;;;9.80;99.90;;;;;;4231674;28;20116;-87
2023/03/31 06:05:24;;;;;;;15.40;4.30;;;9.80;99.90;;;;;;4212834;28;20044;-88
2023/03/31 06:07:26;;;;;;;15.02;4.75;;;9.80;99.90;;;;;;4231126;28;20039;-88
2023/03/31 06:09:27;;;;;;;12.50;4.18;;;9.90;99.90;;;;;;4231256;28;20069;-88
2023/03/31 06:11:28;;;;;;;17.45;4.50;;;9.90;99.90;;;;;;4231336;28;20415;-88
2023/03/31 06:13:28;;;;;;;15.52;3.92;;;9.80;99.90;;;;;;4221830;28;20089;-88
2023/03/31 06:15:30;;;;;;;9.65;3.58;;;9.90;99.90;;;;;;4214146;28;20059;-88
2023/03/31 06:17:32;;;;;;;9.68;4.22;;;9.90;99.90;;;;;;4214452;28;20088;-88
2023/03/31 06:19:33;;;;;;;12.85;3.45;;;9.80;99.90;;;;;;4214283;28;20052;-87
2023/03/31 06:21:35;;;;;;;6.88;3.00;;;9.80;99.90;;;;;;4196277;28;20049;-87
2023/03/31 06:23:36;;;;;;;11.27;2.72;;;9.90;99.90;;;;;;4214334;28;20083;-88
2023/03/31 06:25:39;;;;;;;7.68;3.30;;;9.80;99.90;;;;;;4214192;28;20044;-88
2023/03/31 06:27:41;;;;;;;14.38;2.90;;;9.80;99.90;;;;;;4196373;28;20051;-87
2023/03/31 06:29:43;;;;;;;10.73;3.17;;;9.80;99.90;;;;;;4214130;28;20058;-88
2023/03/31 06:31:43;;;;;;;9.73;2.70;;;9.80;99.90;;;;;;4214586;28;20036;-87
2023/03/31 06:33:45;;;;;;;10.80;2.88;;;9.80;99.90;;;;;;4211971;28;20073;-87
2023/03/31 06:35:45;;;;;;;10.43;3.55;;;9.80;99.90;;;;;;4232733;28;20112;-87
2023/03/31 06:37:46;;;;;;;9.38;2.90;;;9.80;99.90;;;;;;4226048;28;20517;-88
2023/03/31 06:39:47;;;;;;;10.30;2.83;;;9.80;99.90;;;;;;4215258;28;20059;-88
2023/03/31 06:41:48;;;;;;;12.32;2.75;;;9.80;99.90;;;;;;4214866;28;20124;-88
2023/03/31 06:43:49;;;;;;;14.80;3.92;;;9.80;99.90;;;;;;4214637;28;20496;-87
2023/03/31 06:45:52;;;;;;;11.18;3.53;;;9.80;99.90;;;;;;4213982;28;20056;-88
2023/03/31 06:47:53;;;;;;;8.13;3.17;;;9.80;99.90;;;;;;4214128;28;20074;-88
2023/03/31 06:49:53;;;;;;;10.68;2.78;;;9.80;99.90;;;;;;4213904;28;20119;-88
2023/03/31 06:51:54;;;;;;;10.68;2.97;;;9.80;99.90;;;;;;4227582;28;20610;-88
2023/03/31 06:53:56;;;;;;;7.68;2.55;;;9.80;99.90;;;;;;4231127;28;20126;-88
2023/03/31 06:55:57;;;;;;;11.60;2.47;;;9.80;99.90;;;;;;4212372;28;20150;-88
2023/03/31 06:57:57;;;;;;;7.03;2.42;;;9.80;99.90;;;;;;4212780;28;20051;-88
2023/03/31 06:59:58;;;;;;;13.63;3.78;;;9.90;99.90;;;;;;4229935;28;20057;-88
2023/03/31 07:01:59;;;;;;;11.60;2.10;;;9.80;99.90;;;;;;4228137;28;20044;-88
2023/03/31 07:04:01;;;;;;;7.40;2.40;;;9.90;99.90;;;;;;4214038;28;20460;-88
2023/03/31 07:06:02;;;;;;;8.38;2.05;;;9.80;99.90;;;;;;4213860;28;20063;-87
2023/03/31 07:08:04;;;;;;;11.20;2.55;;;9.80;99.90;;;;;;4222764;28;20115;-88
2023/03/31 07:10:06;;;;;;;5.40;1.95;;;9.90;99.90;;;;;;4229853;28;20075;-87
2023/03/31 07:12:06;;;;;;;6.72;2.30;;;9.90;99.90;;;;;;4231111;28;20040;-88
2023/03/31 07:14:07;;;;;;;5.60;2.42;;;9.90;99.90;;;;;;4224802;28;20051;-88
2023/03/31 07:16:08;;;;;;;6.45;1.98;;;9.90;99.90;;;;;;4215024;28;20420;-88
2023/03/31 07:18:09;;;;;;;7.32;2.28;;;9.80;99.90;;;;;;4216961;28;20089;-88
2023/03/31 07:20:14;;;;;;;7.00;2.00;;;9.80;99.90;;;;;;4217030;28;20028;-88
2023/03/31 07:22:14;;;;;;;9.70;2.70;;;9.80;99.90;;;;;;4216943;28;20082;-88
2023/03/31 07:24:16;;;;;;;9.07;2.10;;;9.90;99.90;;;;;;4217223;28;20040;-88
2023/03/31 07:26:16;;;;;;;6.68;2.55;;;9.90;99.90;;;;;;4217246;28;20047;-87
2023/03/31 07:28:18;;;;;;;6.03;2.13;;;9.90;99.90;;;;;;4217118;28;20040;-88
2023/03/31 07:30:19;;;;;;;8.85;2.35;;;9.90;99.90;;;;;;4216605;28;20040;-88
2023/03/31 07:32:22;;;;;;;8.25;2.20;;;9.90;99.90;;;;;;4206268;28;20040;-88
2023/03/31 07:34:22;;;;;;;6.63;2.10;;;9.90;99.90;;;;;;4233392;28;20051;-88
2023/03/31 07:36:23;;;;;;;6.75;2.97;;;9.90;99.90;;;;;;4215192;28;20082;-88
2023/03/31 07:38:24;;;;;;;12.40;3.13;;;9.90;99.90;;;;;;4215389;28;20055;-88
2023/03/31 07:40:29;;;;;;;6.97;1.98;;;9.80;99.90;;;;;;4233327;28;20099;-88
2023/03/31 07:42:31;;;;;;;3.83;2.17;;;9.90;99.90;;;;;;4233411;28;20519;-88
2023/03/31 07:44:36;;;;;;;6.07;2.50;;;9.90;99.90;;;;;;4233083;28;20059;-89
2023/03/31 07:46:38;;;;;;;6.95;2.20;;;9.90;99.90;;;;;;4232542;28;20123;-88
2023/03/31 07:48:39;;;;;;;10.52;2.40;;;9.90;99.90;;;;;;4233154;28;20513;-88
2023/03/31 07:50:41;;;;;;;7.00;2.20;;;10.00;99.90;;;;;;4233695;28;20043;-88
2023/03/31 07:52:42;;;;;;;7.28;2.13;;;10.00;99.90;;;;;;4233571;28;20047;-89
2023/03/31 07:54:43;;;;;;;8.02;2.55;;;10.00;99.90;;;;;;4233435;28;20043;-88
2023/03/31 07:56:44;;;;;;;5.35;3.10;;;10.00;99.90;;;;;;4233169;28;20077;-88
2023/03/31 07:58:46;;;;;;;9.38;2.90;;;10.00;99.90;;;;;;4233277;28;20043;-88
2023/03/31 08:00:47;;;;;;;7.80;2.50;;;10.00;99.90;;;;;;4233561;28;20086;-88
2023/03/31 08:02:48;;;;;;;7.65;2.15;;;10.10;99.90;;;;;;4233627;28;20471;-88
2023/03/31 08:04:49;;;;;;;5.78;2.15;;;10.00;99.90;;;;;;4216124;28;20073;-88
2023/03/31 08:06:51;;;;;;;8.32;2.30;;;10.00;99.90;;;;;;4215285;28;20075;-89
2023/03/31 08:08:52;;;;;;;5.43;2.28;;;10.00;99.90;;;;;;4225793;28;20051;-89
2023/03/31 08:10:53;;;;;;;5.63;2.13;;;10.00;99.90;;;;;;4219325;28;20510;-89
2023/03/31 08:12:54;;;;;;;5.60;2.40;;;10.10;99.90;;;;;;4216940;28;20129;-88
2023/03/31 08:14:55;;;;;;;10.85;2.95;;;10.00;99.90;;;;;;4216467;28;20411;-89
2023/03/31 08:16:56;;;;;;;12.00;2.58;;;10.00;99.90;;;;;;4216313;28;20040;-89
2023/03/31 08:18:57;;;;;;;9.00;2.50;;;10.00;99.90;;;;;;4216611;28;20093;-89
2023/03/31 08:20:58;;;;;;;6.28;2.00;;;10.00;99.90;;;;;;4218350;28;20040;-89
2023/03/31 08:22:59;;;;;;;9.63;2.75;;;9.90;99.90;;;;;;4225574;28;20044;-88
2023/03/31 08:25:00;;;;;;;4.22;1.60;;;10.00;99.90;;;;;;4233167;28;20430;-88
2023/03/31 08:27:00;;;;;;;4.40;1.90;;;10.00;99.90;;;;;;4227574;28;20044;-88
2023/03/31 08:29:03;;;;;;;8.50;2.38;;;10.00;99.90;;;;;;4216883;28;20051;-89
2023/03/31 08:31:07;;;;;;;7.43;2.08;;;10.00;99.90;;;;;;4198497;28;20037;-89
2023/03/31 08:33:08;;;;;;;9.68;2.35;;;10.00;99.90;;;;;;4216812;28;20047;-89
2023/03/31 08:35:09;;;;;;;7.97;1.65;;;10.00;99.90;;;;;;4216338;28;20044;-89
2023/03/31 08:37:10;;;;;;;5.13;1.70;;;10.00;99.90;;;;;;4216579;28;20488;-89
2023/03/31 08:39:11;;;;;;;5.57;1.58;;;10.00;99.90;;;;;;4216095;28;20043;-89
2023/03/31 08:41:36;;;;;;;5.40;2.05;;;9.90;99.90;;;;;;4198129;28;20048;-89
2023/03/31 08:43:44;;;;;;;5.45;2.00;;;10.00;99.90;;;;;;4216227;28;20411;-89
2023/03/31 08:45:47;;;;;;;8.40;1.65;;;9.90;99.90;;;;;;4217663;28;20048;-89
2023/03/31 08:47:53;;;;;;;7.20;1.60;;;9.90;99.90;;;;;;4198620;28;20057;-89
2023/03/31 08:50:06;;;;;;;5.18;1.88;;;9.90;99.90;;;;;;4216531;28;20048;-89
2023/03/31 08:52:13;;;;;;;3.65;1.60;;;9.90;99.90;;;;;;4216214;28;20075;-88
2023/03/31 08:54:19;;;;;;;7.10;1.80;;;10.00;99.90;;;;;;4217181;28;20122;-89
2023/03/31 08:56:22;;;;;;;10.65;2.38;;;10.00;99.90;;;;;;4222766;28;20036;-90
2023/03/31 08:58:42;;;;;;;8.07;2.17;;;9.90;99.90;;;;;;4198461;28;20056;-88
2023/03/31 09:00:56;;;;;;;5.00;1.67;;;10.00;99.90;;;;;;4232977;28;20496;-89
2023/03/31 09:03:09;;;;;;;7.88;2.35;;;10.00;99.90;;;;;;4232824;28;20043;-90
2023/03/31 09:05:19;;;;;;;7.88;2.40;;;10.00;99.90;;;;;;4232606;28;20507;-91
2023/03/31 09:07:42;;;;;;;3.58;1.70;;;10.00;99.90;;;;;;4233372;28;20044;-91
2023/03/31 09:09:45;;;;;;;9.02;2.10;;;10.10;99.90;;;;;;4233511;28;20054;-92
2023/03/31 09:11:52;;;;;;;8.63;2.28;;;10.10;99.90;;;;;;4233518;28;20103;-88
2023/03/31 09:14:18;;;;;;;7.35;2.25;;;10.10;99.90;;;;;;4232645;28;20066;-91
2023/03/31 09:17:13;;;;;;;6.60;2.25;;;10.20;99.90;;;;;;4175310;28;20048;-90
2023/03/31 09:19:21;;;;;;;6.40;1.90;;;10.20;99.90;;;;;;4193436;28;20166;-91
2023/03/31 09:21:36;;;;;;;7.07;2.45;;;10.20;99.90;;;;;;4215010;28;20612;-91
2023/03/31 09:24:05;;;;;;;5.72;2.28;;;10.30;99.90;;;;;;4232872;28;20054;-91
2023/03/31 09:26:26;;;;;;;6.30;2.03;;;10.30;99.90;;;;;;4214635;28;20052;-90
2023/03/31 09:28:37;;;;;;;3.92;1.85;;;10.30;99.90;;;;;;4233710;28;20039;-90
2023/03/31 09:30:41;;;;;;;12.32;2.45;;;10.30;99.90;;;;;;4233449;28;20047;-90
2023/03/31 09:32:42;;;;;;;8.88;3.53;;;10.40;99.90;;;;;;4233134;28;20051;-90
2023/03/31 09:34:45;;;;;;;6.82;1.92;;;10.40;99.90;;;;;;4232489;28;20047;-90
2023/03/31 09:36:46;;;;;;;5.78;2.10;;;10.40;99.90;;;;;;4214188;28;20500;-90
2023/03/31 09:38:47;;;;;;;7.32;2.35;;;10.40;99.90;;;;;;4231601;28;20081;-91
2023/03/31 09:40:49;;;;;;;6.43;2.35;;;10.50;99.90;;;;;;4231694;28;20493;-91
2023/03/31 09:42:56;;;;;;;5.65;2.00;;;10.50;99.90;;;;;;4232161;28;20039;-88
2023/03/31 09:44:57;;;;;;;6.90;2.60;;;10.50;99.90;;;;;;4231923;28;20123;-88
2023/03/31 09:47:00;;;;;;;6.88;2.38;;;10.50;99.90;;;;;;4231994;28;20395;-89
2023/03/31 09:49:11;;;;;;;5.35;1.80;;;10.50;99.90;;;;;;4231565;28;20044;-89
2023/03/31 09:51:21;;;;;;;9.48;2.10;;;10.60;99.90;;;;;;4233209;28;20096;-87
2023/03/31 09:54:06;;;;;;;4.70;2.00;;;10.60;99.90;;;;;;4242520;28;20054;-87
2023/03/31 09:56:10;;;;;;;9.90;2.60;;;10.60;99.90;;;;;;4204616;28;20055;-89
2023/03/31 09:58:15;;;;;;;8.32;2.20;;;10.70;99.90;;;;;;4238905;28;20043;-88
2023/03/31 10:00:21;;;;;;;8.13;2.15;;;10.70;99.90;;;;;;4221398;28;20556;-88
2023/03/31 10:02:31;;;;;;;6.18;2.10;;;10.70;99.90;;;;;;4236693;28;20054;-88
2023/03/31 10:04:34;;;;;;;7.30;2.30;;;10.70;99.90;;;;;;4232090;28;20384;-88
2023/03/31 10:06:41;;;;;;;9.90;2.35;;;10.80;99.90;;;;;;4231183;28;20134;-88
2023/03/31 10:08:50;;;;;;;8.07;2.17;;;10.90;99.90;;;;;;4232314;28;20069;-88
2023/03/31 10:11:05;;;;;;;7.03;2.20;;;10.90;99.90;;;;;;4232183;28;20160;-88
2023/03/31 10:13:13;;;;;;;4.90;2.78;;;11.00;99.90;;;;;;4231627;28;20055;-88
2023/03/31 10:15:19;;;;;;;4.97;2.53;;;11.00;99.90;;;;;;4232092;28;20511;-88
2023/03/31 10:17:26;;;;;;;8.27;2.10;;;11.10;99.90;;;;;;4231335;28;20054;-88
2023/03/31 10:19:39;;;;;;;7.82;2.28;;;11.10;99.90;;;;;;4231520;28;20506;-88
2023/03/31 10:21:39;;;;;;;7.53;2.40;;;11.20;99.90;;;;;;4230950;28;20047;-88
2023/03/31 10:23:45;;;;;;;10.68;2.88;;;11.20;99.90;;;;;;4231212;28;20369;-89
2023/03/31 10:25:46;;;;;;;11.52;2.47;;;11.30;99.90;;;;;;4230845;28;20063;-88
2023/03/31 10:27:51;;;;;;;6.22;2.05;;;11.30;99.90;;;;;;4231132;28;20078;-88
2023/03/31 10:30:00;;;;;;;5.65;2.33;;;11.40;99.90;;;;;;4231271;28;20047;-88
2023/03/31 10:32:11;;;;;;;4.38;2.38;;;11.40;99.90;;;;;;4231971;28;20807;-88
2023/03/31 10:34:15;;;;;;;11.18;2.08;;;11.50;99.90;;;;;;4230588;28;20043;-87
2023/03/31 10:36:28;;;;;;;8.45;2.90;;;11.50;99.90;;;;;;4213210;28;20511;-89
2023/03/31 10:38:34;;;;;;;8.32;1.80;;;11.50;99.90;;;;;;4231493;28;20414;-88
2023/03/31 10:40:35;;;;;;;5.75;2.40;;;11.50;99.90;;;;;;4230197;28;20097;-88
2023/03/31 10:42:36;;;;;;;5.30;1.83;;;11.50;99.90;;;;;;4212919;28;20051;-88
2023/03/31 10:44:38;;;;;;;5.50;2.35;;;11.40;99.90;;;;;;4231048;28;20086;-88
2023/03/31 10:46:41;;;;;;;4.03;1.83;;;11.40;99.90;;;;;;4231049;28;20404;-88
2023/03/31 10:48:43;;;;;;;6.55;1.38;;;11.30;99.90;;;;;;4230846;28;20048;-88
2023/03/31 10:50:43;;;;;;;3.85;1.50;;;11.30;99.90;;;;;;4230612;28;20048;-88
2023/03/31 10:52:47;;;;;;;4.15;1.40;;;11.20;99.90;;;;;;4231069;28;20058;-87